Erato — LG3440 — position and weather

sailwx.info

Track history (hours):
 
Tides and Currents Weather Stations Pressure Air Temp Water Temp Dewpoint Dewpoint Depression Visibility Wind Speed Wind Dir Waves Ship Positions

Erato

Last reported at 2015-Jul-02 17:29 UTC. Time now 2015-Aug-04 05:21 UTC.
Position N 63°53' E 009°44'.
Warning: this ship's position is 32 days out of date.

Type: Fishing. MMSI: 258307000.

Date/timePositionNaut miles runAvg speedWind from/ knotsBaromVisibWave heightAir tempDewpointWater temp
2015-Jul-02 17:29N 63°53' E 009°44'7 8.0
2015-Jul-02 16:33N 63°58' E 009°56'61 8.5
2015-Jul-02 09:22N 64°50' E 011°10'5 5.6
2015-Jul-02 08:32N 64°53' E 011°18'8 8.3
2015-Jul-02 07:32N 64°58' E 011°33'146 7.7
2015-Jul-01 12:33N 67°11' E 014°05'5 5.4
2015-Jul-01 11:33N 67°09' E 014°18'1 0.9
2015-Jul-01 10:17N 67°10' E 014°19'6 7.6
2015-Jul-01 09:33N 67°16' E 014°17'2 2.2
2015-Jul-01 08:31N 67°17' E 014°22'0 0.0
2015-Jul-01 07:31N 67°17' E 014°22'0 0.0
2015-Jul-01 06:31N 67°17' E 014°22'0 0.0
2015-Jul-01 05:31N 67°17' E 014°22'0 0.0
2015-Jul-01 04:31N 67°17' E 014°22'0 0.0
2015-Jul-01 03:31N 67°17' E 014°22'0 0.0
2015-Jul-01 02:31N 67°17' E 014°22'0 0.0
2015-Jul-01 01:31N 67°17' E 014°22'0 0.0
2015-Jul-01 00:31N 67°17' E 014°22'0 0.0
2015-Jun-30 23:31N 67°17' E 014°22'0 0.0
2015-Jun-30 22:31N 67°17' E 014°22'0 0.0
2015-Jun-30 21:31N 67°17' E 014°22'0 0.0
2015-Jun-30 20:31N 67°17' E 014°22'0 0.0
2015-Jun-30 19:31N 67°17' E 014°22'0 0.0
2015-Jun-30 18:31N 67°17' E 014°22'0 0.0
2015-Jun-30 17:31N 67°17' E 014°22'0 0.0
2015-Jun-30 16:31N 67°17' E 014°22'0 0.0
2015-Jun-30 15:31N 67°17' E 014°22'0 0.0
2015-Jun-30 14:31N 67°17' E 014°22'0 0.0
2015-Jun-30 13:31N 67°17' E 014°22'0 0.0
2015-Jun-30 12:31N 67°17' E 014°22'0 0.0
2015-Jun-30 11:34N 67°17' E 014°22'0 0.0
2015-Jun-30 10:33N 67°17' E 014°22'0 0.0
2015-Jun-30 09:31N 67°17' E 014°22'0 0.0
2015-Jun-30 08:31N 67°17' E 014°22'0 0.0
2015-Jun-30 07:33N 67°17' E 014°22'0 0.0
2015-Jun-30 06:33N 67°17' E 014°22'0 0.0
2015-Jun-30 05:33N 67°17' E 014°22'0 0.0
2015-Jun-30 04:33N 67°17' E 014°22'0 0.0
2015-Jun-30 03:33N 67°17' E 014°22'0 0.0
2015-Jun-30 02:33N 67°17' E 014°22'0 0.0
2015-Jun-30 01:33N 67°17' E 014°22'0 0.0
2015-Jun-30 00:34N 67°17' E 014°22'0 0.0
2015-Jun-29 23:34N 67°17' E 014°22'0 0.0
2015-Jun-29 22:34N 67°17' E 014°22'0 0.0
2015-Jun-29 21:34N 67°17' E 014°22'0 0.0
2015-Jun-29 20:34N 67°17' E 014°22'0 0.0
2015-Jun-29 19:31N 67°17' E 014°22'0 0.0
2015-Jun-29 18:31N 67°17' E 014°22'0 0.0
2015-Jun-29 17:31N 67°17' E 014°22'0 0.0
2015-Jun-29 16:31N 67°17' E 014°22'0 0.0
2015-Jun-29 15:31N 67°17' E 014°22'0 0.0
2015-Jun-29 14:31N 67°17' E 014°22'0 0.0
2015-Jun-29 13:31N 67°17' E 014°22'0 0.0
2015-Jun-29 12:28N 67°17' E 014°22'0 0.0
2015-Jun-29 11:31N 67°17' E 014°22'0 0.0
2015-Jun-29 10:31N 67°17' E 014°22'0 0.0
2015-Jun-29 09:31N 67°17' E 014°22'0 0.0
2015-Jun-29 08:31N 67°17' E 014°22'0 0.0
2015-Jun-29 07:31N 67°17' E 014°22'0 0.0
2015-Jun-29 06:31N 67°17' E 014°22'0 0.0
2015-Jun-29 05:31N 67°17' E 014°22'0 0.0
2015-Jun-29 04:31N 67°17' E 014°22'0 0.0
2015-Jun-29 03:31N 67°17' E 014°22'0 0.0
2015-Jun-29 02:31N 67°17' E 014°22'0 0.0
2015-Jun-29 01:31N 67°17' E 014°22'0 0.0
2015-Jun-29 00:31N 67°17' E 014°22'0 0.0
2015-Jun-28 23:31N 67°17' E 014°22'0 0.0
2015-Jun-28 22:31N 67°17' E 014°22'0 0.0
2015-Jun-28 21:31N 67°17' E 014°22'0 0.0
2015-Jun-28 20:31N 67°17' E 014°22'0 0.0
2015-Jun-28 19:31N 67°17' E 014°22'0 0.0
2015-Jun-28 18:31N 67°17' E 014°22'0 0.0
2015-Jun-28 17:31N 67°17' E 014°22'0 0.0
2015-Jun-28 16:31N 67°17' E 014°22'0 0.0
2015-Jun-28 15:31N 67°17' E 014°22'0 0.0
2015-Jun-28 14:31N 67°17' E 014°22'0 0.0
2015-Jun-28 13:31N 67°17' E 014°22'0 0.0
2015-Jun-28 12:31N 67°17' E 014°22'0 0.0
2015-Jun-28 11:31N 67°17' E 014°22'0 0.0
2015-Jun-28 10:31N 67°17' E 014°22'0 0.0
2015-Jun-28 09:31N 67°17' E 014°22'0 0.0
2015-Jun-28 08:31N 67°17' E 014°22'0 0.0
2015-Jun-28 07:31N 67°17' E 014°22'0 0.0
2015-Jun-28 06:31N 67°17' E 014°22'0 0.0
2015-Jun-28 05:31N 67°17' E 014°22'0 0.0
2015-Jun-28 04:31N 67°17' E 014°22'0 0.0
2015-Jun-28 03:31N 67°17' E 014°22'0 0.0
2015-Jun-28 02:31N 67°17' E 014°22'0 0.0
2015-Jun-28 01:31N 67°17' E 014°22'0 0.0
2015-Jun-28 00:31N 67°17' E 014°22'0 0.0
2015-Jun-27 23:31N 67°17' E 014°22'0 0.0
2015-Jun-27 22:31N 67°17' E 014°22'0 0.0
2015-Jun-27 21:31N 67°17' E 014°22'0 0.0
2015-Jun-27 20:31N 67°17' E 014°22'0 0.0
2015-Jun-27 19:31N 67°17' E 014°22'0 0.0
2015-Jun-27 18:31N 67°17' E 014°22'0 0.0
2015-Jun-27 17:31N 67°17' E 014°22'0 0.0
2015-Jun-27 16:31N 67°17' E 014°22'0 0.0
2015-Jun-27 15:31N 67°17' E 014°22'0 0.0
2015-Jun-27 14:31N 67°17' E 014°22'0 0.0
2015-Jun-27 13:31N 67°17' E 014°22'0 0.0
2015-Jun-27 12:31N 67°17' E 014°22'0 0.0
2015-Jun-27 11:31N 67°17' E 014°22'0 0.0
2015-Jun-27 10:31N 67°17' E 014°22'0 0.0
2015-Jun-27 09:31N 67°17' E 014°22'0 0.0
2015-Jun-27 08:31N 67°17' E 014°22'0 0.0
2015-Jun-27 07:31N 67°17' E 014°22'0 0.0
2015-Jun-27 06:31N 67°17' E 014°22'0 0.0
2015-Jun-27 05:31N 67°17' E 014°22'0 0.0
2015-Jun-27 04:31N 67°17' E 014°22'0 0.0
2015-Jun-27 03:31N 67°17' E 014°22'0 0.0
2015-Jun-27 02:31N 67°17' E 014°22'0 0.0
2015-Jun-27 01:31N 67°17' E 014°22'0 0.0
2015-Jun-27 00:31N 67°17' E 014°22'0 0.0
2015-Jun-26 23:31N 67°17' E 014°22'0 0.0
2015-Jun-26 22:31N 67°17' E 014°22'0 0.0
2015-Jun-26 21:28N 67°17' E 014°22'0 0.0
2015-Jun-26 20:31N 67°17' E 014°22'0 0.0
2015-Jun-26 19:31N 67°17' E 014°22'0 0.0
2015-Jun-26 18:31N 67°17' E 014°22'0 0.0
2015-Jun-26 17:28N 67°17' E 014°22'0 0.0
2015-Jun-26 16:31N 67°17' E 014°22'0 0.0
2015-Jun-26 15:31N 67°17' E 014°22'0 0.0
2015-Jun-26 14:31N 67°17' E 014°22'0 0.0
2015-Jun-26 13:31N 67°17' E 014°22'0 0.0
2015-Jun-26 12:31N 67°17' E 014°22'0 0.0
2015-Jun-26 11:31N 67°17' E 014°22'0 0.0
2015-Jun-26 10:31N 67°17' E 014°22'0 0.0
2015-Jun-26 09:31N 67°17' E 014°22'0 0.0
2015-Jun-26 08:31N 67°17' E 014°22'0 0.0
2015-Jun-26 07:31N 67°17' E 014°22'0 0.0
2015-Jun-26 06:31N 67°17' E 014°22'0 0.0
2015-Jun-26 05:31N 67°17' E 014°22'0 0.0
2015-Jun-26 04:31N 67°17' E 014°22'0 0.0
2015-Jun-26 03:31N 67°17' E 014°22'0 0.0
2015-Jun-26 02:31N 67°17' E 014°22'0 0.0
2015-Jun-26 01:31N 67°17' E 014°22'0 0.0
2015-Jun-26 00:31N 67°17' E 014°22'0 0.0
2015-Jun-25 23:31N 67°17' E 014°22'0 0.0
2015-Jun-25 22:31N 67°17' E 014°22'0 0.0
2015-Jun-25 21:31N 67°17' E 014°22'0 0.0
2015-Jun-25 20:31N 67°17' E 014°22'0 0.0
2015-Jun-25 19:31N 67°17' E 014°22'0 0.0
2015-Jun-25 18:31N 67°17' E 014°22'0 0.0
2015-Jun-25 17:28N 67°17' E 014°22'0 0.0
2015-Jun-25 16:31N 67°17' E 014°22'0 0.0
2015-Jun-25 15:31N 67°17' E 014°22'0 0.0
2015-Jun-25 14:31N 67°17' E 014°22'0 0.0
2015-Jun-25 13:31N 67°17' E 014°22'0 0.0
2015-Jun-25 12:31N 67°17' E 014°22'0 0.0
2015-Jun-25 11:31N 67°17' E 014°22'0 0.0
2015-Jun-25 10:31N 67°17' E 014°22'0 0.0
2015-Jun-25 09:31N 67°17' E 014°22'0 0.0
2015-Jun-25 08:32N 67°17' E 014°22'0 0.0
2015-Jun-25 07:32N 67°17' E 014°22'0 0.0
2015-Jun-25 06:32N 67°17' E 014°22'0 0.0
2015-Jun-25 05:32N 67°17' E 014°22'0 0.0
2015-Jun-25 04:32N 67°17' E 014°22'0 0.0
2015-Jun-25 03:32N 67°17' E 014°22'0 0.0
2015-Jun-25 02:29N 67°17' E 014°22'0 0.0
2015-Jun-25 01:32N 67°17' E 014°22'0 0.0
2015-Jun-25 00:32N 67°17' E 014°22'0 0.0
2015-Jun-24 23:32N 67°17' E 014°22'0 0.0
2015-Jun-24 22:32N 67°17' E 014°22'0 0.0
2015-Jun-24 21:32N 67°17' E 014°22'0 0.0
2015-Jun-24 20:32N 67°17' E 014°22'0 0.0
2015-Jun-24 19:32N 67°17' E 014°22'0 0.0
2015-Jun-24 18:32N 67°17' E 014°22'0 0.0
2015-Jun-24 17:32N 67°17' E 014°22'0 0.0
2015-Jun-24 16:32N 67°17' E 014°22'0 0.0
2015-Jun-24 15:32N 67°17' E 014°22'0 0.0
2015-Jun-24 14:32N 67°17' E 014°22'0 0.0
2015-Jun-24 13:32N 67°17' E 014°22'0 0.0
2015-Jun-24 12:32N 67°17' E 014°22'0 0.0
2015-Jun-24 11:32N 67°17' E 014°22'0 0.0
2015-Jun-24 10:32N 67°17' E 014°22'0 0.0
2015-Jun-24 09:32N 67°17' E 014°22'0 0.0
2015-Jun-24 08:32N 67°17' E 014°22'0 0.0
2015-Jun-24 07:32N 67°17' E 014°22'0 0.0
2015-Jun-24 06:32N 67°17' E 014°22'0 0.0
2015-Jun-24 05:32N 67°17' E 014°22'0 0.0
2015-Jun-24 04:32N 67°17' E 014°22'0 0.0
2015-Jun-24 03:32N 67°17' E 014°22'0 0.0
2015-Jun-24 02:32N 67°17' E 014°22'0 0.0
2015-Jun-24 01:32N 67°17' E 014°22'0 0.0
2015-Jun-24 00:32N 67°17' E 014°22'0 0.0
2015-Jun-23 23:32N 67°17' E 014°22'0 0.0
2015-Jun-23 22:32N 67°17' E 014°22'0 0.0
2015-Jun-23 21:32N 67°17' E 014°22'0 0.0
2015-Jun-23 20:32N 67°17' E 014°22'0 0.0
2015-Jun-23 19:32N 67°17' E 014°22'0 0.0
2015-Jun-23 19:05N 67°17' E 014°22'0 0.0
2015-Jun-22 19:32N 67°17' E 014°22'0 0.0
2015-Jun-22 18:32N 67°17' E 014°22'0 0.0
2015-Jun-22 17:32N 67°17' E 014°22'  
Track history (hours):
 
Tides and Currents Weather Stations Pressure Air Temp Water Temp Dewpoint Dewpoint Depression Visibility Wind Speed Wind Dir Waves Ship Positions

Erato

Last reported at 2015-Jul-02 17:29 UTC. Time now 2015-Aug-04 05:21 UTC.
Position N 63°53' E 009°44'.
Warning: this ship's position is 32 days out of date.

Type: Fishing. MMSI: 258307000.

Date/timePositionNaut miles runAvg speedWind from/ knotsBaromVisibWave heightAir tempDewpointWater temp
2015-Jul-02 17:29N 63°53' E 009°44'7 8.0
2015-Jul-02 16:33N 63°58' E 009°56'61 8.5
2015-Jul-02 09:22N 64°50' E 011°10'5 5.6
2015-Jul-02 08:32N 64°53' E 011°18'8 8.3
2015-Jul-02 07:32N 64°58' E 011°33'146 7.7
2015-Jul-01 12:33N 67°11' E 014°05'5 5.4
2015-Jul-01 11:33N 67°09' E 014°18'1 0.9
2015-Jul-01 10:17N 67°10' E 014°19'6 7.6
2015-Jul-01 09:33N 67°16' E 014°17'2 2.2
2015-Jul-01 08:31N 67°17' E 014°22'0 0.0
2015-Jul-01 07:31N 67°17' E 014°22'0 0.0
2015-Jul-01 06:31N 67°17' E 014°22'0 0.0
2015-Jul-01 05:31N 67°17' E 014°22'0 0.0
2015-Jul-01 04:31N 67°17' E 014°22'0 0.0
2015-Jul-01 03:31N 67°17' E 014°22'0 0.0
2015-Jul-01 02:31N 67°17' E 014°22'0 0.0
2015-Jul-01 01:31N 67°17' E 014°22'0 0.0
2015-Jul-01 00:31N 67°17' E 014°22'0 0.0
2015-Jun-30 23:31N 67°17' E 014°22'0 0.0
2015-Jun-30 22:31N 67°17' E 014°22'0 0.0
2015-Jun-30 21:31N 67°17' E 014°22'0 0.0
2015-Jun-30 20:31N 67°17' E 014°22'0 0.0
2015-Jun-30 19:31N 67°17' E 014°22'0 0.0
2015-Jun-30 18:31N 67°17' E 014°22'0 0.0
2015-Jun-30 17:31N 67°17' E 014°22'0 0.0
2015-Jun-30 16:31N 67°17' E 014°22'0 0.0
2015-Jun-30 15:31N 67°17' E 014°22'0 0.0
2015-Jun-30 14:31N 67°17' E 014°22'0 0.0
2015-Jun-30 13:31N 67°17' E 014°22'0 0.0
2015-Jun-30 12:31N 67°17' E 014°22'0 0.0
2015-Jun-30 11:34N 67°17' E 014°22'0 0.0
2015-Jun-30 10:33N 67°17' E 014°22'0 0.0
2015-Jun-30 09:31N 67°17' E 014°22'0 0.0
2015-Jun-30 08:31N 67°17' E 014°22'0 0.0
2015-Jun-30 07:33N 67°17' E 014°22'0 0.0
2015-Jun-30 06:33N 67°17' E 014°22'0 0.0
2015-Jun-30 05:33N 67°17' E 014°22'0 0.0
2015-Jun-30 04:33N 67°17' E 014°22'0 0.0
2015-Jun-30 03:33N 67°17' E 014°22'0 0.0
2015-Jun-30 02:33N 67°17' E 014°22'0 0.0
2015-Jun-30 01:33N 67°17' E 014°22'0 0.0
2015-Jun-30 00:34N 67°17' E 014°22'0 0.0
2015-Jun-29 23:34N 67°17' E 014°22'0 0.0
2015-Jun-29 22:34N 67°17' E 014°22'0 0.0
2015-Jun-29 21:34N 67°17' E 014°22'0 0.0
2015-Jun-29 20:34N 67°17' E 014°22'0 0.0
2015-Jun-29 19:31N 67°17' E 014°22'0 0.0
2015-Jun-29 18:31N 67°17' E 014°22'0 0.0
2015-Jun-29 17:31N 67°17' E 014°22'0 0.0
2015-Jun-29 16:31N 67°17' E 014°22'0 0.0
2015-Jun-29 15:31N 67°17' E 014°22'0 0.0
2015-Jun-29 14:31N 67°17' E 014°22'0 0.0
2015-Jun-29 13:31N 67°17' E 014°22'0 0.0
2015-Jun-29 12:28N 67°17' E 014°22'0 0.0
2015-Jun-29 11:31N 67°17' E 014°22'0 0.0
2015-Jun-29 10:31N 67°17' E 014°22'0 0.0
2015-Jun-29 09:31N 67°17' E 014°22'0 0.0
2015-Jun-29 08:31N 67°17' E 014°22'0 0.0
2015-Jun-29 07:31N 67°17' E 014°22'0 0.0
2015-Jun-29 06:31N 67°17' E 014°22'0 0.0
2015-Jun-29 05:31N 67°17' E 014°22'0 0.0
2015-Jun-29 04:31N 67°17' E 014°22'0 0.0
2015-Jun-29 03:31N 67°17' E 014°22'0 0.0
2015-Jun-29 02:31N 67°17' E 014°22'0 0.0
2015-Jun-29 01:31N 67°17' E 014°22'0 0.0
2015-Jun-29 00:31N 67°17' E 014°22'0 0.0
2015-Jun-28 23:31N 67°17' E 014°22'0 0.0
2015-Jun-28 22:31N 67°17' E 014°22'0 0.0
2015-Jun-28 21:31N 67°17' E 014°22'0 0.0
2015-Jun-28 20:31N 67°17' E 014°22'0 0.0
2015-Jun-28 19:31N 67°17' E 014°22'0 0.0
2015-Jun-28 18:31N 67°17' E 014°22'0 0.0
2015-Jun-28 17:31N 67°17' E 014°22'0 0.0
2015-Jun-28 16:31N 67°17' E 014°22'0 0.0
2015-Jun-28 15:31N 67°17' E 014°22'0 0.0
2015-Jun-28 14:31N 67°17' E 014°22'0 0.0
2015-Jun-28 13:31N 67°17' E 014°22'0 0.0
2015-Jun-28 12:31N 67°17' E 014°22'0 0.0
2015-Jun-28 11:31N 67°17' E 014°22'0 0.0
2015-Jun-28 10:31N 67°17' E 014°22'0 0.0
2015-Jun-28 09:31N 67°17' E 014°22'0 0.0
2015-Jun-28 08:31N 67°17' E 014°22'0 0.0
2015-Jun-28 07:31N 67°17' E 014°22'0 0.0
2015-Jun-28 06:31N 67°17' E 014°22'0 0.0
2015-Jun-28 05:31N 67°17' E 014°22'0 0.0
2015-Jun-28 04:31N 67°17' E 014°22'0 0.0
2015-Jun-28 03:31N 67°17' E 014°22'0 0.0
2015-Jun-28 02:31N 67°17' E 014°22'0 0.0
2015-Jun-28 01:31N 67°17' E 014°22'0 0.0
2015-Jun-28 00:31N 67°17' E 014°22'0 0.0
2015-Jun-27 23:31N 67°17' E 014°22'0 0.0
2015-Jun-27 22:31N 67°17' E 014°22'0 0.0
2015-Jun-27 21:31N 67°17' E 014°22'0 0.0
2015-Jun-27 20:31N 67°17' E 014°22'0 0.0
2015-Jun-27 19:31N 67°17' E 014°22'0 0.0
2015-Jun-27 18:31N 67°17' E 014°22'0 0.0
2015-Jun-27 17:31N 67°17' E 014°22'0 0.0
2015-Jun-27 16:31N 67°17' E 014°22'0 0.0
2015-Jun-27 15:31N 67°17' E 014°22'0 0.0
2015-Jun-27 14:31N 67°17' E 014°22'0 0.0
2015-Jun-27 13:31N 67°17' E 014°22'0 0.0
2015-Jun-27 12:31N 67°17' E 014°22'0 0.0
2015-Jun-27 11:31N 67°17' E 014°22'0 0.0
2015-Jun-27 10:31N 67°17' E 014°22'0 0.0
2015-Jun-27 09:31N 67°17' E 014°22'0 0.0
2015-Jun-27 08:31N 67°17' E 014°22'0 0.0
2015-Jun-27 07:31N 67°17' E 014°22'0 0.0
2015-Jun-27 06:31N 67°17' E 014°22'0 0.0
2015-Jun-27 05:31N 67°17' E 014°22'0 0.0
2015-Jun-27 04:31N 67°17' E 014°22'0 0.0
2015-Jun-27 03:31N 67°17' E 014°22'0 0.0
2015-Jun-27 02:31N 67°17' E 014°22'0 0.0
2015-Jun-27 01:31N 67°17' E 014°22'0 0.0
2015-Jun-27 00:31N 67°17' E 014°22'0 0.0
2015-Jun-26 23:31N 67°17' E 014°22'0 0.0
2015-Jun-26 22:31N 67°17' E 014°22'0 0.0
2015-Jun-26 21:28N 67°17' E 014°22'0 0.0
2015-Jun-26 20:31N 67°17' E 014°22'0 0.0
2015-Jun-26 19:31N 67°17' E 014°22'0 0.0
2015-Jun-26 18:31N 67°17' E 014°22'0 0.0
2015-Jun-26 17:28N 67°17' E 014°22'0 0.0
2015-Jun-26 16:31N 67°17' E 014°22'0 0.0
2015-Jun-26 15:31N 67°17' E 014°22'0 0.0
2015-Jun-26 14:31N 67°17' E 014°22'0 0.0
2015-Jun-26 13:31N 67°17' E 014°22'0 0.0
2015-Jun-26 12:31N 67°17' E 014°22'0 0.0
2015-Jun-26 11:31N 67°17' E 014°22'0 0.0
2015-Jun-26 10:31N 67°17' E 014°22'0 0.0
2015-Jun-26 09:31N 67°17' E 014°22'0 0.0
2015-Jun-26 08:31N 67°17' E 014°22'0 0.0
2015-Jun-26 07:31N 67°17' E 014°22'0 0.0
2015-Jun-26 06:31N 67°17' E 014°22'0 0.0
2015-Jun-26 05:31N 67°17' E 014°22'0 0.0
2015-Jun-26 04:31N 67°17' E 014°22'0 0.0
2015-Jun-26 03:31N 67°17' E 014°22'0 0.0
2015-Jun-26 02:31N 67°17' E 014°22'0 0.0
2015-Jun-26 01:31N 67°17' E 014°22'0 0.0
2015-Jun-26 00:31N 67°17' E 014°22'0 0.0
2015-Jun-25 23:31N 67°17' E 014°22'0 0.0
2015-Jun-25 22:31N 67°17' E 014°22'0 0.0
2015-Jun-25 21:31N 67°17' E 014°22'0 0.0
2015-Jun-25 20:31N 67°17' E 014°22'0 0.0
2015-Jun-25 19:31N 67°17' E 014°22'0 0.0
2015-Jun-25 18:31N 67°17' E 014°22'0 0.0
2015-Jun-25 17:28N 67°17' E 014°22'0 0.0
2015-Jun-25 16:31N 67°17' E 014°22'0 0.0
2015-Jun-25 15:31N 67°17' E 014°22'0 0.0
2015-Jun-25 14:31N 67°17' E 014°22'0 0.0
2015-Jun-25 13:31N 67°17' E 014°22'0 0.0
2015-Jun-25 12:31N 67°17' E 014°22'0 0.0
2015-Jun-25 11:31N 67°17' E 014°22'0 0.0
2015-Jun-25 10:31N 67°17' E 014°22'0 0.0
2015-Jun-25 09:31N 67°17' E 014°22'0 0.0
2015-Jun-25 08:32N 67°17' E 014°22'0 0.0
2015-Jun-25 07:32N 67°17' E 014°22'0 0.0
2015-Jun-25 06:32N 67°17' E 014°22'0 0.0
2015-Jun-25 05:32N 67°17' E 014°22'0 0.0
2015-Jun-25 04:32N 67°17' E 014°22'0 0.0
2015-Jun-25 03:32N 67°17' E 014°22'0 0.0
2015-Jun-25 02:29N 67°17' E 014°22'0 0.0
2015-Jun-25 01:32N 67°17' E 014°22'0 0.0
2015-Jun-25 00:32N 67°17' E 014°22'0 0.0
2015-Jun-24 23:32N 67°17' E 014°22'0 0.0
2015-Jun-24 22:32N 67°17' E 014°22'0 0.0
2015-Jun-24 21:32N 67°17' E 014°22'0 0.0
2015-Jun-24 20:32N 67°17' E 014°22'0 0.0
2015-Jun-24 19:32N 67°17' E 014°22'0 0.0
2015-Jun-24 18:32N 67°17' E 014°22'0 0.0
2015-Jun-24 17:32N 67°17' E 014°22'0 0.0
2015-Jun-24 16:32N 67°17' E 014°22'0 0.0
2015-Jun-24 15:32N 67°17' E 014°22'0 0.0
2015-Jun-24 14:32N 67°17' E 014°22'0 0.0
2015-Jun-24 13:32N 67°17' E 014°22'0 0.0
2015-Jun-24 12:32N 67°17' E 014°22'0 0.0
2015-Jun-24 11:32N 67°17' E 014°22'0 0.0
2015-Jun-24 10:32N 67°17' E 014°22'0 0.0
2015-Jun-24 09:32N 67°17' E 014°22'0 0.0
2015-Jun-24 08:32N 67°17' E 014°22'0 0.0
2015-Jun-24 07:32N 67°17' E 014°22'0 0.0
2015-Jun-24 06:32N 67°17' E 014°22'0 0.0
2015-Jun-24 05:32N 67°17' E 014°22'0 0.0
2015-Jun-24 04:32N 67°17' E 014°22'0 0.0
2015-Jun-24 03:32N 67°17' E 014°22'0 0.0
2015-Jun-24 02:32N 67°17' E 014°22'0 0.0
2015-Jun-24 01:32N 67°17' E 014°22'0 0.0
2015-Jun-24 00:32N 67°17' E 014°22'0 0.0
2015-Jun-23 23:32N 67°17' E 014°22'0 0.0
2015-Jun-23 22:32N 67°17' E 014°22'0 0.0
2015-Jun-23 21:32N 67°17' E 014°22'0 0.0
2015-Jun-23 20:32N 67°17' E 014°22'0 0.0
2015-Jun-23 19:32N 67°17' E 014°22'0 0.0
2015-Jun-23 19:05N 67°17' E 014°22'0 0.0
2015-Jun-22 19:32N 67°17' E 014°22'0 0.0
2015-Jun-22 18:32N 67°17' E 014°22'0 0.0
2015-Jun-22 17:32N 67°17' E 014°22'  

Dump ship's entire track history